Time;durP1;ratioP1;P1;durP2;ratioP2;P2;SDS_P1;SDS_P2;PMS_P1;PMS_P2;Temp;Humidity;BMP_temperature;BMP_pressure;BME280_temperature;BME280_humidity;BME280_pressure;Samples;Min_cycle;Max_cycle;Signal;HPM_P1;HPM_P2
2022/10/08 00:01:08;;;;;;;;;;;;;;;;;;5053013;28;1428;-75
2022/10/08 00:03:36;;;;;;;;;;;;;;;;;;5052701;28;1052;-74
2022/10/08 00:06:02;;;;;;;;;;;;;;;;;;5052534;28;962;-73
2022/10/08 00:08:29;;;;;;;;;;;;;;;;;;5052873;28;1127;-73
2022/10/08 00:10:56;;;;;;;;;;;;;;;;;;5053585;28;1408;-73
2022/10/08 00:13:23;;;;;;;;;;;;;;;;;;5052395;28;1063;-74
2022/10/08 00:15:49;;;;;;;;;;;;;;;;;;5052467;28;1914;-74
2022/10/08 00:18:17;;;;;;;;;;;;;;;;;;5052541;28;861;-74
2022/10/08 00:20:43;;;;;;;;;;;;;;;;;;5052607;28;869;-72
2022/10/08 00:23:09;;;;;;;;;;;;;;;;;;5051959;28;1075;-74
2022/10/08 00:25:38;;;;;;;;;;;;;;;;;;5052437;28;1302;-73
2022/10/08 00:28:04;;;;;;;;;;;;;;;;;;5052307;28;941;-73
2022/10/08 00:30:30;;;;;;;;;;;;;;;;;;5052352;28;1448;-73
2022/10/08 00:32:57;;;;;;;;;;;;;;;;;;5051386;28;1463;-74
2022/10/08 00:35:24;;;;;;;;;;;;;;;;;;5052142;28;1340;-73
2022/10/08 00:37:50;;;;;;;;;;;;;;;;;;5050811;28;1938;-72
2022/10/08 00:40:17;;;;;;;;;;;;;;;;;;5052168;28;937;-74
2022/10/08 00:42:43;;;;;;;;;;;;;;;;;;5051770;28;842;-74
2022/10/08 00:45:11;;;;;;;;;;;;;;;;;;5051605;28;1294;-74
2022/10/08 00:47:42;;;;;;;;;;;;;;;;;;5050473;28;1355;-74
2022/10/08 00:50:09;;;;;;;;;;;;;;;;;;5051693;28;1127;-74
2022/10/08 00:52:38;;;;;;;;;;;;;;;;;;5051664;28;1127;-74
2022/10/08 00:55:06;;;;;;;;;;;;;;;;;;5051363;28;1307;-74
2022/10/08 00:57:32;;;;;;;;;;;;;;;;;;5051868;28;1971;-73
2022/10/08 00:59:58;;;;;;;;;;;;;;;;;;5051542;28;1511;-75
2022/10/08 01:02:24;;;;;;;;;;;;;;;;;;5051362;28;1067;-74
2022/10/08 01:04:50;;;;;;;;;;;;;;;;;;5067039;28;1353;-75
2022/10/08 01:07:18;;;;;;;;;;;;;;;;;;5051608;28;1138;-74
2022/10/08 01:09:48;;;;;;;;;;;;;;;;;;5051609;28;957;-74
2022/10/08 01:12:17;;;;;;;;;;;;;;;;;;5066351;28;1378;-74
2022/10/08 01:14:44;;;;;;;;;;;;;;;;;;5066900;28;1337;-74
2022/10/08 01:17:12;;;;;;;;;;;;;;;;;;5050110;28;1917;-74
2022/10/08 01:19:47;;;;;;;;;;;;;;;;;;5051270;28;1131;-75
2022/10/08 01:22:16;;;;;;;;;;;;;;;;;;5051035;28;1072;-74
2022/10/08 01:27:30;;;;;;;;;;;;;;;;;;5051337;28;1024;-74
2022/10/08 01:29:56;;;;;;;;;;;;;;;;;;5056061;28;1527;-73
2022/10/08 01:32:25;;;;;;;;;;;;;;;;;;5071067;28;1123;-74
2022/10/08 01:34:52;;;;;;;;;;;;;;;;;;5069860;28;1305;-74
2022/10/08 01:37:19;;;;;;;;;;;;;;;;;;5069579;28;1906;-74
2022/10/08 01:39:46;;;;;;;;;;;;;;;;;;5071039;28;985;-75
2022/10/08 01:42:12;;;;;;;;;;;;;;;;;;5070544;28;1306;-74
2022/10/08 01:44:40;;;;;;;;;;;;;;;;;;5070967;28;1286;-75
2022/10/08 01:47:07;;;;;;;;;;;;;;;;;;5030956;28;1111;-74
2022/10/08 01:49:34;;;;;;;;;;;;;;;;;;5030897;28;1010;-74
2022/10/08 01:52:03;;;;;;;;;;;;;;;;;;5030645;28;887;-74
2022/10/08 01:54:29;;;;;;;;;;;;;;;;;;5030718;28;1356;-75
2022/10/08 01:56:55;;;;;;;;;;;;;;;;;;5030719;28;1980;-74
2022/10/08 01:59:22;;;;;;;;;;;;;;;;;;5036375;28;1437;-74
2022/10/08 02:01:54;;;;;;;;;;;;;;;;;;5070428;28;1119;-74
2022/10/08 02:04:33;;;;;;;;;;;;;;;;;;5069523;28;1428;-74
2022/10/08 02:07:00;;;;;;;;;;;;;;;;;;5070585;28;1064;-74
2022/10/08 02:09:26;;;;;;;;;;;;;;;;;;5070703;28;992;-74
2022/10/08 02:11:52;;;;;;;;;;;;;;;;;;5072830;28;1036;-74
2022/10/08 02:14:19;;;;;;;;;;;;;;;;;;5074610;28;1399;-74
2022/10/08 02:16:48;;;;;;;;;;;;;;;;;;5074809;28;1910;-74
2022/10/08 02:19:17;;;;;;;;;;;;;;;;;;5074644;28;912;-75
2022/10/08 02:21:43;;;;;;;;;;;;;;;;;;5074406;28;1103;-74
2022/10/08 02:24:10;;;;;;;;;;;;;;;;;;5073042;28;1323;-75
2022/10/08 02:26:39;;;;;;;;;;;;;;;;;;5074795;28;1111;-74
2022/10/08 02:29:06;;;;;;;;;;;;;;;;;;5072053;28;1452;-75
2022/10/08 02:31:34;;;;;;;;;;;;;;;;;;5054618;28;1108;-74
2022/10/08 02:34:01;;;;;;;;;;;;;;;;;;5054638;28;1324;-72
2022/10/08 02:36:30;;;;;;;;;;;;;;;;;;5053785;28;1918;-73
2022/10/08 02:38:56;;;;;;;;;;;;;;;;;;5054333;28;1315;-74
2022/10/08 02:41:23;;;;;;;;;;;;;;;;;;5054340;28;909;-74
2022/10/08 02:43:49;;;;;;;;;;;;;;;;;;5052711;28;1380;-75
2022/10/08 02:46:16;;;;;;;;;;;;;;;;;;5054244;28;1154;-75
2022/10/08 02:48:43;;;;;;;;;;;;;;;;;;5054321;28;961;-74
2022/10/08 02:51:10;;;;;;;;;;;;;;;;;;5054081;28;1261;-75
2022/10/08 02:53:37;;;;;;;;;;;;;;;;;;5053981;28;953;-74
2022/10/08 02:56:05;;;;;;;;;;;;;;;;;;5055134;28;1003;-74
2022/10/08 02:58:32;;;;;;;;;;;;;;;;;;5053792;28;1914;-75
2022/10/08 03:01:00;;;;;;;;;;;;;;;;;;5053774;28;1455;-74
2022/10/08 03:03:27;;;;;;;;;;;;;;;;;;5069064;28;1132;-75
2022/10/08 03:05:53;;;;;;;;;;;;;;;;;;5053796;28;1314;-74
2022/10/08 03:08:20;;;;;;;;;;;;;;;;;;5053683;28;981;-74
2022/10/08 03:10:47;;;;;;;;;;;;;;;;;;5053891;28;946;-74
2022/10/08 03:13:13;;;;;;;;;;;;;;;;;;5051951;28;1330;-74
2022/10/08 03:15:40;;;;;;;;;;;;;;;;;;5053678;28;1393;-74
2022/10/08 03:18:07;;;;;;;;;;;;;;;;;;5053520;28;1914;-74
2022/10/08 03:20:33;;;;;;;;;;;;;;;;;;5053505;28;817;-74
2022/10/08 03:23:00;;;;;;;;;;;;;;;;;;5051634;28;1230;-73
2022/10/08 03:25:26;;;;;;;;;;;;;;;;;;5053544;28;1349;-75
2022/10/08 03:27:54;;;;;;;;;;;;;;;;;;5053506;28;1134;-75
2022/10/08 03:30:20;;;;;;;;;;;;;;;;;;5070073;28;1436;-74
2022/10/08 03:32:46;;;;;;;;;;;;;;;;;;5071749;28;1221;-75
2022/10/08 03:35:12;;;;;;;;;;;;;;;;;;5073442;28;1308;-74
2022/10/08 03:37:39;;;;;;;;;;;;;;;;;;5073115;28;1967;-74
2022/10/08 03:40:06;;;;;;;;;;;;;;;;;;5073240;28;1080;-74
2022/10/08 03:42:32;;;;;;;;;;;;;;;;;;5073117;28;799;-74
2022/10/08 03:45:01;;;;;;;;;;;;;;;;;;5070299;28;1395;-73
2022/10/08 03:47:27;;;;;;;;;;;;;;;;;;5053277;28;1118;-74
2022/10/08 03:49:53;;;;;;;;;;;;;;;;;;5052981;28;1063;-72
2022/10/08 03:52:19;;;;;;;;;;;;;;;;;;5051547;28;1115;-74
2022/10/08 03:54:45;;;;;;;;;;;;;;;;;;5051581;28;1270;-74
2022/10/08 03:57:12;;;;;;;;;;;;;;;;;;5052815;28;1918;-74
2022/10/08 03:59:38;;;;;;;;;;;;;;;;;;5052221;28;1460;-73
2022/10/08 04:02:05;;;;;;;;;;;;;;;;;;5052341;28;878;-73
2022/10/08 04:04:31;;;;;;;;;;;;;;;;;;5068096;28;1340;-73
2022/10/08 04:06:58;;;;;;;;;;;;;;;;;;5052542;28;1073;-73
2022/10/08 04:09:24;;;;;;;;;;;;;;;;;;5052781;28;842;-73
2022/10/08 04:11:50;;;;;;;;;;;;;;;;;;5052403;28;1126;-73
2022/10/08 04:14:16;;;;;;;;;;;;;;;;;;5052603;28;1334;-73
2022/10/08 04:16:42;;;;;;;;;;;;;;;;;;5052710;28;1138;-74
2022/10/08 04:19:11;;;;;;;;;;;;;;;;;;5052042;28;1981;-73
2022/10/08 04:21:37;;;;;;;;;;;;;;;;;;5052222;28;1071;-73
2022/10/08 04:24:04;;;;;;;;;;;;;;;;;;5052424;28;1383;-74
2022/10/08 04:26:30;;;;;;;;;;;;;;;;;;5052573;28;1111;-75
2022/10/08 04:28:56;;;;;;;;;;;;;;;;;;5052466;28;1451;-73
2022/10/08 04:31:23;;;;;;;;;;;;;;;;;;5050146;28;1479;-74
2022/10/08 04:33:49;;;;;;;;;;;;;;;;;;5051813;28;1290;-74
2022/10/08 04:36:17;;;;;;;;;;;;;;;;;;5050820;28;753;-73
2022/10/08 04:38:44;;;;;;;;;;;;;;;;;;5050921;28;2042;-74
2022/10/08 04:41:10;;;;;;;;;;;;;;;;;;5050763;28;1103;-74
2022/10/08 04:43:38;;;;;;;;;;;;;;;;;;5051776;28;1136;-74
2022/10/08 04:46:04;;;;;;;;;;;;;;;;;;5051866;28;1200;-73
2022/10/08 04:48:30;;;;;;;;;;;;;;;;;;5052156;28;1088;-73
2022/10/08 04:50:57;;;;;;;;;;;;;;;;;;5051568;28;1030;-73
2022/10/08 04:53:25;;;;;;;;;;;;;;;;;;5051653;28;1059;-74
2022/10/08 04:55:51;;;;;;;;;;;;;;;;;;5050214;28;1290;-73
2022/10/08 04:58:17;;;;;;;;;;;;;;;;;;5051786;28;1918;-73
2022/10/08 05:00:44;;;;;;;;;;;;;;;;;;5067051;28;1523;-74
2022/10/08 05:03:10;;;;;;;;;;;;;;;;;;5051096;28;957;-73
2022/10/08 05:05:38;;;;;;;;;;;;;;;;;;5051406;28;1316;-72
2022/10/08 05:08:04;;;;;;;;;;;;;;;;;;5051414;28;1056;-74
2022/10/08 05:10:32;;;;;;;;;;;;;;;;;;5051576;28;1005;-74
2022/10/08 05:12:58;;;;;;;;;;;;;;;;;;5051180;28;1052;-73
2022/10/08 05:15:24;;;;;;;;;;;;;;;;;;5051421;28;1324;-74
2022/10/08 05:17:50;;;;;;;;;;;;;;;;;;5048160;28;1918;-75
2022/10/08 05:20:16;;;;;;;;;;;;;;;;;;5050496;28;1205;-73
2022/10/08 05:22:43;;;;;;;;;;;;;;;;;;5049612;28;1483;-74
2022/10/08 05:25:09;;;;;;;;;;;;;;;;;;5051126;28;1261;-73
2022/10/08 05:27:36;;;;;;;;;;;;;;;;;;5051420;28;1444;-73
2022/10/08 05:30:03;;;;;;;;;;;;;;;;;;5050473;28;1268;-75
2022/10/08 05:32:29;;;;;;;;;;;;;;;;;;5050593;28;1063;-73
2022/10/08 05:34:55;;;;;;;;;;;;;;;;;;5049132;28;1471;-73
2022/10/08 05:37:22;;;;;;;;;;;;;;;;;;5051142;28;1981;-73
2022/10/08 05:39:48;;;;;;;;;;;;;;;;;;5051140;28;972;-71
2022/10/08 05:42:14;;;;;;;;;;;;;;;;;;5050734;28;979;-72
2022/10/08 05:44:42;;;;;;;;;;;;;;;;;;5038240;28;1471;-74
2022/10/08 05:47:08;;;;;;;;;;;;;;;;;;5050361;28;1184;-74
2022/10/08 05:49:35;;;;;;;;;;;;;;;;;;5049595;28;1880;-73
2022/10/08 05:52:01;;;;;;;;;;;;;;;;;;5040688;28;1527;-74
2022/10/08 05:54:28;;;;;;;;;;;;;;;;;;5049887;28;1600;-73
2022/10/08 05:56:54;;;;;;;;;;;;;;;;;;5049526;28;1202;-71
2022/10/08 05:59:21;;;;;;;;;;;;;;;;;;5048863;28;1979;-73
2022/10/08 06:01:49;;;;;;;;;;;;;;;;;;5043331;28;1153;-73
2022/10/08 06:04:17;;;;;;;;;;;;;;;;;;5030792;28;1301;-72
2022/10/08 06:06:43;;;;;;;;;;;;;;;;;;5048049;28;1400;-73
2022/10/08 06:09:10;;;;;;;;;;;;;;;;;;5042374;28;1201;-72
2022/10/08 06:11:37;;;;;;;;;;;;;;;;;;5057830;28;1334;-73
2022/10/08 06:14:04;;;;;;;;;;;;;;;;;;5059258;28;1490;-73
2022/10/08 06:16:31;;;;;;;;;;;;;;;;;;5052827;28;1309;-74
2022/10/08 06:19:00;;;;;;;;;;;;;;;;;;5050877;28;1969;-74
2022/10/08 06:21:28;;;;;;;;;;;;;;;;;;5050623;28;850;-75
2022/10/08 06:23:54;;;;;;;;;;;;;;;;;;5050671;28;1324;-74
2022/10/08 06:26:21;;;;;;;;;;;;;;;;;;5049028;28;1507;-74
2022/10/08 06:28:48;;;;;;;;;;;;;;;;;;5050825;28;1435;-74
2022/10/08 06:31:14;;;;;;;;;;;;;;;;;;5050481;28;1096;-74
2022/10/08 06:33:40;;;;;;;;;;;;;;;;;;5050428;28;1314;-71
2022/10/08 06:36:10;;;;;;;;;;;;;;;;;;5065809;28;1243;-73
2022/10/08 06:38:36;;;;;;;;;;;;;;;;;;5048441;28;1922;-74
2022/10/08 06:41:02;;;;;;;;;;;;;;;;;;5043162;28;1279;-72
2022/10/08 06:43:28;;;;;;;;;;;;;;;;;;5058888;28;1256;-74
2022/10/08 06:45:55;;;;;;;;;;;;;;;;;;5067178;28;1603;-74
2022/10/08 06:48:22;;;;;;;;;;;;;;;;;;5054409;28;1375;-74
2022/10/08 06:50:48;;;;;;;;;;;;;;;;;;5047100;28;1248;-72
2022/10/08 06:53:15;;;;;;;;;;;;;;;;;;5047857;28;878;-73
2022/10/08 06:55:42;;;;;;;;;;;;;;;;;;5048336;28;1307;-74
2022/10/08 06:58:08;;;;;;;;;;;;;;;;;;5049510;28;1943;-74
2022/10/08 07:00:34;;;;;;;;;;;;;;;;;;5050734;28;1411;-73
2022/10/08 07:03:00;;;;;;;;;;;;;;;;;;5048457;28;1338;-74
2022/10/08 07:05:26;;;;;;;;;;;;;;;;;;5044284;28;1349;-73
2022/10/08 07:07:53;;;;;;;;;;;;;;;;;;5051900;28;982;-73
2022/10/08 07:10:20;;;;;;;;;;;;;;;;;;5052159;28;618;-73
2022/10/08 07:12:46;;;;;;;;;;;;;;;;;;5050500;28;1295;-74
2022/10/08 07:15:12;;;;;;;;;;;;;;;;;;5055198;28;1409;-73
2022/10/08 07:17:39;;;;;;;;;;;;;;;;;;5065382;28;1084;-73
2022/10/08 07:20:06;;;;;;;;;;;;;;;;;;5050977;28;1914;-73
2022/10/08 07:22:32;;;;;;;;;;;;;;;;;;5039899;28;1471;-73
2022/10/08 07:25:00;;;;;;;;;;;;;;;;;;5034957;28;1498;-72
2022/10/08 07:27:27;;;;;;;;;;;;;;;;;;5039649;28;1416;-74
2022/10/08 07:29:54;;;;;;;;;;;;;;;;;;5051355;28;1108;-74
2022/10/08 07:32:20;;;;;;;;;;;;;;;;;;5048225;28;1622;-73
2022/10/08 07:34:46;;;;;;;;;;;;;;;;;;5051190;28;1393;-74
2022/10/08 07:37:12;;;;;;;;;;;;;;;;;;5065623;28;1300;-73
2022/10/08 07:39:38;;;;;;;;;;;;;;;;;;5069479;28;1955;-72
2022/10/08 07:42:04;;;;;;;;;;;;;;;;;;5047974;28;1555;-72
2022/10/08 07:44:32;;;;;;;;;;;;;;;;;;5037787;28;1462;-73
2022/10/08 07:46:58;;;;;;;;;;;;;;;;;;5049554;28;1452;-72
2022/10/08 07:49:24;;;;;;;;;;;;;;;;;;5050068;28;1423;-73
2022/10/08 07:51:50;;;;;;;;;;;;;;;;;;5049479;28;1263;-74
2022/10/08 07:54:18;;;;;;;;;;;;;;;;;;5049875;28;1375;-72
2022/10/08 07:56:44;;;;;;;;;;;;;;;;;;5050236;28;1465;-72
2022/10/08 07:59:13;;;;;;;;;;;;;;;;;;5042696;28;1906;-72
2022/10/08 08:01:41;;;;;;;;;;;;;;;;;;5052270;28;1158;-73
2022/10/08 08:04:08;;;;;;;;;;;;;;;;;;5051459;28;1372;-73
2022/10/08 08:06:38;;;;;;;;;;;;;;;;;;5044413;28;1429;-73
2022/10/08 08:09:04;;;;;;;;;;;;;;;;;;5041007;28;1335;-72
2022/10/08 08:11:30;;;;;;;;;;;;;;;;;;5043178;28;1448;-74
2022/10/08 08:13:57;;;;;;;;;;;;;;;;;;5040699;28;1406;-73
2022/10/08 08:16:24;;;;;;;;;;;;;;;;;;5064268;28;1347;-73
2022/10/08 08:18:52;;;;;;;;;;;;;;;;;;5061132;28;1918;-72
2022/10/08 08:21:19;;;;;;;;;;;;;;;;;;5060660;28;1326;-73
2022/10/08 08:23:46;;;;;;;;;;;;;;;;;;5061351;28;1411;-72
2022/10/08 08:26:13;;;;;;;;;;;;;;;;;;5062906;28;1613;-72
2022/10/08 08:28:39;;;;;;;;;;;;;;;;;;5054296;28;1302;-72
2022/10/08 08:31:09;;;;;;;;;;;;;;;;;;5042813;28;1595;-73
2022/10/08 08:33:35;;;;;;;;;;;;;;;;;;5042110;28;1343;-73
2022/10/08 08:36:03;;;;;;;;;;;;;;;;;;5055625;28;1422;-72
2022/10/08 08:38:29;;;;;;;;;;;;;;;;;;5062162;28;1985;-72
2022/10/08 08:40:56;;;;;;;;;;;;;;;;;;5061111;28;1219;-72
2022/10/08 08:43:22;;;;;;;;;;;;;;;;;;5062272;28;1242;-72
2022/10/08 08:45:48;;;;;;;;;;;;;;;;;;5059891;28;1548;-73
2022/10/08 08:48:16;;;;;;;;;;;;;;;;;;5062803;28;1558;-72
2022/10/08 08:50:42;;;;;;;;;;;;;;;;;;5057398;28;1325;-73
2022/10/08 08:53:10;;;;;;;;;;;;;;;;;;5050497;28;1134;-73
2022/10/08 08:55:37;;;;;;;;;;;;;;;;;;5066172;22;3403;-78
2022/10/08 08:58:06;;;;;;;;;;;;;;;;;;5058943;28;1268;-79
2022/10/08 09:00:34;;;;;;;;;;;;;;;;;;5052036;28;1917;-79
2022/10/08 09:03:02;;;;;;;;;;;;;;;;;;5052371;28;1214;-78
2022/10/08 09:05:29;;;;;;;;;;;;;;;;;;5051699;28;1445;-79
2022/10/08 09:07:57;;;;;;;;;;;;;;;;;;5072842;28;1425;-79
2022/10/08 09:10:29;;;;;;;;;;;;;;;;;;5072532;28;1270;-78
2022/10/08 09:12:55;;;;;;;;;;;;;;;;;;5072722;28;1257;-78
2022/10/08 09:15:23;;;;;;;;;;;;;;;;;;5070995;28;1443;-78
2022/10/08 09:17:50;;;;;;;;;;;;;;;;;;5073500;28;961;-79
2022/10/08 09:20:16;;;;;;;;;;;;;;;;;;5070792;28;1969;-78
2022/10/08 09:22:44;;;;;;;;;;;;;;;;;;5073233;28;1051;-78
2022/10/08 09:25:12;;;;;;;;;;;;;;;;;;5072657;28;1314;-78
2022/10/08 09:27:43;;;;;;;;;;;;;;;;;;5072026;28;1163;-78
2022/10/08 09:30:20;;;;;;;;;;;;;;;;;;5072175;28;1114;-79
2022/10/08 09:32:46;;;;;;;;;;;;;;;;;;5070971;28;1400;-78
2022/10/08 09:35:14;;;;;;;;;;;;;;;;;;5071970;28;1359;-78
2022/10/08 09:37:40;;;;;;;;;;;;;;;;;;5071142;28;1232;-78
2022/10/08 09:40:13;;;;;;;;;;;;;;;;;;5072310;28;1914;-79
2022/10/08 09:42:39;;;;;;;;;;;;;;;;;;5071869;28;1317;-79
2022/10/08 09:45:28;;;;;;;;;;;;;;;;;;5068379;28;1442;-77
2022/10/08 09:48:10;;;;;;;;;;;;;;;;;;5052006;28;1059;-79
2022/10/08 09:50:36;;;;;;;;;;;;;;;;;;5057507;28;1738;-77
2022/10/08 09:53:03;;;;;;;;;;;;;;;;;;5069934;28;1349;-78
2022/10/08 09:55:29;;;;;;;;;;;;;;;;;;5066030;28;1698;-77
2022/10/08 09:57:56;;;;;;;;;;;;;;;;;;5068153;28;1094;-78
2022/10/08 10:00:24;;;;;;;;;;;;;;;;;;5071742;28;1962;-79
2022/10/08 10:02:52;;;;;;;;;;;;;;;;;;5071341;28;1067;-77
2022/10/08 10:05:20;;;;;;;;;;;;;;;;;;5071556;28;1331;-78
2022/10/08 10:07:46;;;;;;;;;;;;;;;;;;5070131;28;1280;-77
2022/10/08 10:10:15;;;;;;;;;;;;;;;;;;5068753;28;1178;-77
2022/10/08 10:12:42;;;;;;;;;;;;;;;;;;5070633;28;1413;-77
2022/10/08 10:15:10;;;;;;;;;;;;;;;;;;5070971;28;1448;-77
2022/10/08 10:17:38;;;;;;;;;;;;;;;;;;5071618;28;719;-78
2022/10/08 10:20:05;;;;;;;;;;;;;;;;;;5058210;28;1968;-77
2022/10/08 10:22:32;;;;;;;;;;;;;;;;;;5049118;28;1126;-77
2022/10/08 10:25:00;;;;;;;;;;;;;;;;;;5051130;28;1301;-76
2022/10/08 10:27:28;;;;;;;;;;;;;;;;;;5053238;28;1598;-77
2022/10/08 10:30:00;;;;;;;;;;;;;;;;;;5051081;28;815;-78
2022/10/08 10:32:27;;;;;;;;;;;;;;;;;;5052076;28;1118;-77
2022/10/08 10:34:57;;;;;;;;;;;;;;;;;;5054804;28;1308;-77
2022/10/08 10:37:26;;;;;;;;;;;;;;;;;;5054815;28;1080;-78
2022/10/08 10:39:54;;;;;;;;;;;;;;;;;;5060431;28;1965;-78
2022/10/08 10:42:20;;;;;;;;;;;;;;;;;;5061728;28;1402;-78
2022/10/08 10:44:51;;;;;;;;;;;;;;;;;;5064342;28;1254;-77
2022/10/08 10:47:17;;;;;;;;;;;;;;;;;;5062671;28;1306;-77
2022/10/08 10:49:44;;;;;;;;;;;;;;;;;;5066137;28;1419;-78
2022/10/08 10:52:16;;;;;;;;;;;;;;;;;;5073657;28;870;-78
2022/10/08 10:54:44;;;;;;;;;;;;;;;;;;5074417;28;1012;-77
2022/10/08 10:57:12;;;;;;;;;;;;;;;;;;5073251;28;1330;-77
2022/10/08 10:59:43;;;;;;;;;;;;;;;;;;5073890;28;1906;-77
2022/10/08 11:02:11;;;;;;;;;;;;;;;;;;5054844;28;1478;-78
2022/10/08 11:04:39;;;;;;;;;;;;;;;;;;5054089;28;1063;-78
2022/10/08 11:07:05;;;;;;;;;;;;;;;;;;5066303;28;1466;-77
2022/10/08 11:09:40;;;;;;;;;;;;;;;;;;5062272;28;1229;-77
2022/10/08 11:12:09;;;;;;;;;;;;;;;;;;5057828;28;1511;-78
2022/10/08 11:14:37;;;;;;;;;;;;;;;;;;5064545;28;1492;-77
2022/10/08 11:17:04;;;;;;;;;;;;;;;;;;5064064;28;1285;-77
2022/10/08 11:19:35;;;;;;;;;;;;;;;;;;5052130;28;1914;-77
2022/10/08 11:22:03;;;;;;;;;;;;;;;;;;5053332;28;639;-77
2022/10/08 11:24:33;;;;;;;;;;;;;;;;;;5053798;28;1083;-78
2022/10/08 11:27:02;;;;;;;;;;;;;;;;;;5059050;28;1463;-78
2022/10/08 11:29:29;;;;;;;;;;;;;;;;;;5060497;28;1181;-78
2022/10/08 11:31:55;;;;;;;;;;;;;;;;;;5053382;28;1064;-76
2022/10/08 11:34:22;;;;;;;;;;;;;;;;;;5053305;28;786;-76
2022/10/08 11:36:50;;;;;;;;;;;;;;;;;;5053232;28;1330;-77
2022/10/08 11:39:17;;;;;;;;;;;;;;;;;;5053159;28;1973;-77
2022/10/08 11:41:46;;;;;;;;;;;;;;;;;;5057160;28;1406;-77
2022/10/08 11:44:13;;;;;;;;;;;;;;;;;;5060164;28;1154;-76
2022/10/08 11:46:39;;;;;;;;;;;;;;;;;;5053348;28;1289;-78
2022/10/08 11:49:21;;;;;;;;;;;;;;;;;;5061418;28;1531;-77
2022/10/08 11:51:49;;;;;;;;;;;;;;;;;;5060153;28;1270;-78
2022/10/08 11:54:16;;;;;;;;;;;;;;;;;;5060366;28;1372;-77
2022/10/08 11:56:43;;;;;;;;;;;;;;;;;;5063538;28;1456;-78
2022/10/08 11:59:19;;;;;;;;;;;;;;;;;;5064607;28;1225;-77
2022/10/08 12:01:48;;;;;;;;;;;;;;;;;;5061742;28;1255;-77
2022/10/08 12:04:17;;;;;;;;;;;;;;;;;;5060718;28;1507;-77
2022/10/08 12:06:43;;;;;;;;;;;;;;;;;;5057655;28;1569;-77
2022/10/08 12:09:10;;;;;;;;;;;;;;;;;;5062208;28;1280;-78
2022/10/08 12:11:45;;;;;;;;;;;;;;;;;;5054861;28;1263;-79
2022/10/08 12:14:45;;;;;;;;;;;;;;;;;;5052079;28;1040;-78
2022/10/08 12:17:12;;;;;;;;;;;;;;;;;;5062835;28;1396;-78
2022/10/08 12:19:41;;;;;;;;;;;;;;;;;;5067641;28;1913;-78
2022/10/08 12:22:32;;;;;;;;;;;;;;;;;;5053308;28;1157;-78
2022/10/08 12:25:00;;;;;;;;;;;;;;;;;;5052166;28;1329;-79
2022/10/08 12:27:28;;;;;;;;;;;;;;;;;;5052095;28;1076;-77
2022/10/08 12:29:54;;;;;;;;;;;;;;;;;;5051446;28;1013;-78
2022/10/08 12:32:20;;;;;;;;;;;;;;;;;;5068457;28;1456;-78
2022/10/08 12:34:46;;;;;;;;;;;;;;;;;;5058436;28;1486;-79
2022/10/08 12:37:27;;;;;;;;;;;;;;;;;;5056636;28;1514;-78
2022/10/08 12:39:53;;;;;;;;;;;;;;;;;;5062660;28;1972;-78
2022/10/08 12:42:21;;;;;;;;;;;;;;;;;;5060649;28;1126;-79
2022/10/08 12:44:49;;;;;;;;;;;;;;;;;;5062759;28;1293;-78
2022/10/08 12:47:26;;;;;;;;;;;;;;;;;;5060980;28;1318;-79
2022/10/08 12:49:52;;;;;;;;;;;;;;;;;;5062251;28;1487;-78
2022/10/08 12:52:18;;;;;;;;;;;;;;;;;;5060341;28;1245;-78
2022/10/08 12:54:46;;;;;;;;;;;;;;;;;;5059435;28;1393;-78
2022/10/08 12:57:12;;;;;;;;;;;;;;;;;;5059150;28;1348;-79
2022/10/08 12:59:40;;;;;;;;;;;;;;;;;;5057150;28;1987;-78
2022/10/08 13:02:21;;;;;;;;;;;;;;;;;;5061022;28;1183;-78
2022/10/08 13:04:47;;;;;;;;;;;;;;;;;;5059084;28;1394;-78
2022/10/08 13:07:18;;;;;;;;;;;;;;;;;;5062589;28;1373;-78
2022/10/08 13:09:44;;;;;;;;;;;;;;;;;;5063018;28;1932;-78
2022/10/08 13:12:11;;;;;;;;;;;;;;;;;;5068606;28;1330;-77
2022/10/08 13:14:38;;;;;;;;;;;;;;;;;;5067695;28;1989;-78
2022/10/08 13:17:05;;;;;;;;;;;;;;;;;;5067154;28;1365;-78
2022/10/08 13:19:32;;;;;;;;;;;;;;;;;;5055233;28;1452;-78
2022/10/08 13:21:59;;;;;;;;;;;;;;;;;;5047537;28;1919;-77
2022/10/08 13:24:38;;;;;;;;;;;;;;;;;;5064854;28;1400;-78
2022/10/08 13:27:06;;;;;;;;;;;;;;;;;;5058268;28;1348;-77
2022/10/08 13:29:33;;;;;;;;;;;;;;;;;;5069357;28;1131;-78
2022/10/08 13:32:00;;;;;;;;;;;;;;;;;;5069241;28;1138;-78
2022/10/08 13:34:28;;;;;;;;;;;;;;;;;;5067739;28;1334;-77
2022/10/08 13:36:55;;;;;;;;;;;;;;;;;;5064078;28;1453;-78
2022/10/08 13:39:21;;;;;;;;;;;;;;;;;;5058111;28;1473;-78
2022/10/08 13:41:50;;;;;;;;;;;;;;;;;;5053486;28;1977;-78
2022/10/08 13:44:17;;;;;;;;;;;;;;;;;;5060784;28;1153;-78
2022/10/08 13:46:43;;;;;;;;;;;;;;;;;;5068266;28;1591;-78
2022/10/08 13:49:16;;;;;;;;;;;;;;;;;;5053834;28;1661;-78
2022/10/08 13:51:44;;;;;;;;;;;;;;;;;;5064692;28;1424;-79
2022/10/08 13:54:10;;;;;;;;;;;;;;;;;;5053362;28;1273;-78
2022/10/08 13:56:36;;;;;;;;;;;;;;;;;;5058189;28;1435;-79
2022/10/08 13:59:02;;;;;;;;;;;;;;;;;;5059349;28;1237;-79
2022/10/08 14:01:28;;;;;;;;;;;;;;;;;;5051611;28;1914;-79
2022/10/08 14:03:55;;;;;;;;;;;;;;;;;;5053145;28;1064;-78
2022/10/08 14:06:21;;;;;;;;;;;;;;;;;;5054370;28;1493;-79
2022/10/08 14:08:48;;;;;;;;;;;;;;;;;;5059001;28;1227;-78
2022/10/08 14:11:16;;;;;;;;;;;;;;;;;;5074007;28;1224;-78
2022/10/08 14:13:42;;;;;;;;;;;;;;;;;;5075465;28;893;-79
2022/10/08 14:16:09;;;;;;;;;;;;;;;;;;5074205;28;1462;-79
2022/10/08 14:18:35;;;;;;;;;;;;;;;;;;5060217;28;1515;-79
2022/10/08 14:21:01;;;;;;;;;;;;;;;;;;5052634;28;1914;-79
2022/10/08 14:23:27;;;;;;;;;;;;;;;;;;5070820;28;1582;-78
2022/10/08 14:25:55;;;;;;;;;;;;;;;;;;5055356;28;1377;-77
2022/10/08 14:28:21;;;;;;;;;;;;;;;;;;5066381;28;1587;-79
2022/10/08 14:30:47;;;;;;;;;;;;;;;;;;5058884;28;1252;-78
2022/10/08 14:33:13;;;;;;;;;;;;;;;;;;5050969;28;993;-78
2022/10/08 14:35:39;;;;;;;;;;;;;;;;;;5052408;28;1411;-79
2022/10/08 14:38:06;;;;;;;;;;;;;;;;;;5052564;28;952;-78
2022/10/08 14:40:32;;;;;;;;;;;;;;;;;;5051479;28;1965;-78
2022/10/08 14:43:00;;;;;;;;;;;;;;;;;;5051537;28;942;-78
2022/10/08 14:45:26;;;;;;;;;;;;;;;;;;5051995;28;1333;-77
2022/10/08 14:47:52;;;;;;;;;;;;;;;;;;5063052;28;1507;-78
2022/10/08 14:50:18;;;;;;;;;;;;;;;;;;5072052;28;1083;-78
2022/10/08 14:52:44;;;;;;;;;;;;;;;;;;5071206;28;957;-77
2022/10/08 14:55:12;;;;;;;;;;;;;;;;;;5071145;28;1329;-77
2022/10/08 14:57:38;;;;;;;;;;;;;;;;;;5071515;28;918;-77
2022/10/08 15:00:06;;;;;;;;;;;;;;;;;;5063159;28;1375;-77
2022/10/08 15:02:33;;;;;;;;;;;;;;;;;;5063069;28;1985;-78
2022/10/08 15:05:00;;;;;;;;;;;;;;;;;;5069771;28;1294;-77
2022/10/08 15:07:26;;;;;;;;;;;;;;;;;;5063101;28;1399;-77
2022/10/08 15:09:52;;;;;;;;;;;;;;;;;;5057896;28;1365;-77
2022/10/08 15:12:19;;;;;;;;;;;;;;;;;;5053924;28;1372;-78
2022/10/08 15:14:45;;;;;;;;;;;;;;;;;;5061673;28;1389;-77
2022/10/08 15:17:12;;;;;;;;;;;;;;;;;;5058845;28;1507;-78
2022/10/08 15:19:38;;;;;;;;;;;;;;;;;;5058196;28;1353;-77
2022/10/08 15:22:05;;;;;;;;;;;;;;;;;;5062534;28;1969;-78
2022/10/08 15:24:31;;;;;;;;;;;;;;;;;;5061550;28;1302;-77
2022/10/08 15:26:57;;;;;;;;;;;;;;;;;;5057423;28;1381;-77
2022/10/08 15:29:23;;;;;;;;;;;;;;;;;;5054456;28;1433;-77
2022/10/08 15:31:50;;;;;;;;;;;;;;;;;;5055224;28;1192;-78
2022/10/08 15:34:17;;;;;;;;;;;;;;;;;;5070638;28;1332;-77
2022/10/08 15:36:44;;;;;;;;;;;;;;;;;;5071153;28;1340;-78
2022/10/08 15:39:11;;;;;;;;;;;;;;;;;;5071300;28;1260;-78
2022/10/08 15:41:38;;;;;;;;;;;;;;;;;;5069405;28;1910;-77
2022/10/08 15:44:06;;;;;;;;;;;;;;;;;;5062519;28;1457;-77
2022/10/08 15:46:32;;;;;;;;;;;;;;;;;;5062331;28;1655;-78
2022/10/08 15:49:00;;;;;;;;;;;;;;;;;;5054060;28;1109;-77
2022/10/08 15:51:28;;;;;;;;;;;;;;;;;;5049537;28;1370;-77
2022/10/08 15:53:55;;;;;;;;;;;;;;;;;;5051012;28;1142;-77
2022/10/08 15:56:21;;;;;;;;;;;;;;;;;;5050838;28;1298;-78
2022/10/08 15:58:47;;;;;;;;;;;;;;;;;;5050427;28;1473;-77
2022/10/08 16:01:14;;;;;;;;;;;;;;;;;;5052244;28;1914;-77
2022/10/08 16:03:41;;;;;;;;;;;;;;;;;;5058841;28;1392;-77
2022/10/08 16:06:07;;;;;;;;;;;;;;;;;;5058930;28;1770;-78
2022/10/08 16:08:36;;;;;;;;;;;;;;;;;;5054277;28;1071;-79
2022/10/08 16:11:09;;;;;;;;;;;;;;;;;;5060366;28;1528;-78
2022/10/08 16:13:35;;;;;;;;;;;;;;;;;;5056334;28;1126;-77
2022/10/08 16:16:03;;;;;;;;;;;;;;;;;;5049538;28;1404;-78
2022/10/08 16:18:29;;;;;;;;;;;;;;;;;;5050450;28;1134;-78
2022/10/08 16:20:55;;;;;;;;;;;;;;;;;;5050555;28;1965;-78
2022/10/08 16:23:21;;;;;;;;;;;;;;;;;;5052975;28;1446;-77
2022/10/08 16:25:49;;;;;;;;;;;;;;;;;;5066086;28;1334;-77
2022/10/08 16:28:15;;;;;;;;;;;;;;;;;;5066768;28;1457;-77
2022/10/08 16:30:41;;;;;;;;;;;;;;;;;;5054670;28;1221;-76
2022/10/08 16:33:07;;;;;;;;;;;;;;;;;;5050244;28;972;-77
2022/10/08 16:35:34;;;;;;;;;;;;;;;;;;5050617;28;1386;-78
2022/10/08 16:38:00;;;;;;;;;;;;;;;;;;5049039;28;1127;-77
2022/10/08 16:40:26;;;;;;;;;;;;;;;;;;5057788;28;1615;-77
2022/10/08 16:42:54;;;;;;;;;;;;;;;;;;5058650;28;1918;-77
2022/10/08 16:45:20;;;;;;;;;;;;;;;;;;5068584;28;1344;-77
2022/10/08 16:47:47;;;;;;;;;;;;;;;;;;5053986;28;1444;-77
2022/10/08 16:50:13;;;;;;;;;;;;;;;;;;5058752;28;1121;-77
2022/10/08 16:52:39;;;;;;;;;;;;;;;;;;5057778;28;1209;-77
2022/10/08 16:55:05;;;;;;;;;;;;;;;;;;5058761;28;1426;-77
2022/10/08 16:57:32;;;;;;;;;;;;;;;;;;5060539;28;1350;-77
2022/10/08 17:00:00;;;;;;;;;;;;;;;;;;5056168;28;1442;-77
2022/10/08 17:02:26;;;;;;;;;;;;;;;;;;5061996;28;1975;-75
2022/10/08 17:04:52;;;;;;;;;;;;;;;;;;5064108;28;1415;-78
2022/10/08 17:07:18;;;;;;;;;;;;;;;;;;5060847;28;1217;-77
2022/10/08 17:09:45;;;;;;;;;;;;;;;;;;5054991;28;1370;-77